This is the latest recevied weather packets stored in our database for station/object VK2OB. If no packets are shown the sender has not sent any weather packets the latest 10 day(s).
| Time | Temp. | Humidity | Pressure | Rain* | Wind** | Luminosity | Snow |
|---|---|---|---|---|---|---|---|
| 1778024536 | 23.89° C | 52% | 1020.2 hPa | 0 mm | - | - | - |
| 1778024231 | 22.22° C | 56% | 1020.1 hPa | 0 mm | - | - | - |
| 1778023630 | 19.44° C | 62% | 1020.1 hPa | 0 mm | - | - | - |
| 1778023331 | 18.89° C | 62% | 1020.1 hPa | 0 mm | - | - | - |
| 1778023032 | 19.44° C | 59% | 1020.1 hPa | 0 mm | - | - | - |
| 1778022733 | 20.56° C | 59% | 1020.1 hPa | 0 mm | - | - | - |
| 1778022434 | 20° C | 61% | 1020.2 hPa | 0 mm | - | - | - |
| 1778022129 | 19.44° C | 62% | 1020.2 hPa | 0 mm | - | - | - |
| 1778021677 | 18.89° C | 63% | 1020.2 hPa | 0 mm | - | - | - |
| 1778021378 | 18.33° C | 65% | 1020.3 hPa | 0 mm | - | - | - |
| 1778021078 | 17.78° C | 66% | 1020.3 hPa | 0 mm | - | - | - |
| 1778020780 | 17.78° C | 68% | 1020.2 hPa | 0 mm | - | - | - |
| 1778020475 | 16.67° C | 70% | 1020.2 hPa | 0 mm | - | - | - |
| 1778020019 | 16.11° C | 70% | 1020.2 hPa | 0 mm | - | - | - |
| 1778019569 | 16.11° C | 71% | 1020.2 hPa | 0 mm | - | - | - |
| 1778019270 | 16.11° C | 72% | 1020.2 hPa | 0 mm | - | - | - |
| 1778018965 | 16.11° C | 74% | 1020.2 hPa | 0 mm | - | - | - |
| 1778018515 | 15.56° C | 77% | 1020.2 hPa | 0 mm | - | - | - |
| 1778018216 | 15° C | 78% | 1020.3 hPa | 0 mm | - | - | - |
| 1778017917 | 14.44° C | 79% | 1020.2 hPa | 0 mm | - | - | - |
| 1778017618 | 13.89° C | 80% | 1020.2 hPa | 0 mm | - | - | - |
| 1778017319 | 13.89° C | 81% | 1020.2 hPa | 0 mm | - | - | - |
| 1778017020 | 13.89° C | 78% | 1020.1 hPa | 0 mm | - | - | - |
| 1778016721 | 14.44° C | 76% | 1020.1 hPa | 0 mm | - | - | - |
| 1778016422 | 15° C | 73% | 1020.1 hPa | 0 mm | - | - | - |
* Rain latest hour (hover to see other rain measurements)
** Current wind speed in m/s (hover to see current wind gust speed)